createdAt,value
2018-01-10T00:00:25.161Z,19.29
2018-01-10T00:01:25.148Z,18.72
2018-01-10T00:02:25.143Z,17.65
2018-01-10T00:03:25.133Z,19.33
2018-01-10T00:04:25.126Z,22.74
2018-01-10T00:05:25.121Z,19.64
2018-01-10T00:06:25.109Z,19.95
2018-01-10T00:07:25.105Z,17.12
2018-01-10T00:08:25.097Z,17.95
2018-01-10T00:09:25.088Z,21.84
2018-01-10T00:09:37.088Z,0.92
2018-01-10T00:11:25.079Z,20.17
2018-01-10T00:12:25.068Z,20.97
2018-01-10T00:13:25.057Z,22.72
2018-01-10T00:14:25.049Z,20.04
2018-01-10T00:15:25.043Z,19.21
2018-01-10T00:16:25.029Z,21.32
2018-01-10T00:17:25.025Z,22.01
2018-01-10T00:18:25.019Z,19.73
2018-01-10T00:19:25.013Z,19.58
2018-01-10T00:20:25.007Z,20.63
2018-01-10T00:21:25.004Z,21.04
2018-01-10T00:22:24.994Z,20.01
2018-01-10T00:23:24.984Z,18.76
2018-01-10T00:24:24.976Z,17.64
2018-01-10T00:25:24.981Z,20.66
2018-01-10T00:26:24.958Z,20.87
2018-01-10T00:27:24.954Z,17.81
2018-01-10T00:28:24.950Z,19.37
2018-01-10T00:29:24.938Z,18.61
2018-01-10T00:30:24.932Z,17.67
2018-01-10T00:31:24.922Z,18.34
2018-01-10T00:32:24.911Z,19.68
2018-01-10T00:33:24.909Z,19.63
2018-01-10T00:34:24.901Z,18.65
2018-01-10T00:35:24.894Z,18.24
2018-01-10T00:36:24.891Z,18.72
2018-01-10T00:37:24.877Z,18.72
2018-01-10T00:38:24.866Z,19.36
2018-01-10T00:39:24.851Z,20.20
2018-01-10T00:40:24.849Z,17.39
2018-01-10T00:41:24.847Z,17.41
2018-01-10T00:42:24.839Z,16.74
2018-01-10T00:43:24.820Z,18.21
2018-01-10T00:44:24.823Z,21.92
2018-01-10T00:45:24.817Z,17.80
2018-01-10T00:46:24.808Z,19.49
2018-01-10T00:47:24.800Z,18.70
2018-01-10T00:48:24.802Z,16.89
2018-01-10T00:49:24.787Z,19.58
2018-01-10T00:50:24.781Z,17.93
2018-01-10T00:51:24.774Z,17.73
2018-01-10T00:52:24.758Z,17.94
2018-01-10T00:53:24.752Z,18.80
2018-01-10T00:54:24.763Z,19.38
2018-01-10T00:55:24.740Z,19.59
2018-01-10T00:56:24.731Z,17.52
2018-01-10T00:57:25.442Z,18.66
2018-01-10T00:58:24.717Z,18.32
2018-01-10T00:59:24.712Z,18.89
2018-01-10T01:00:24.700Z,18.58
2018-01-10T01:01:24.692Z,17.22
2018-01-10T01:02:24.689Z,17.62
2018-01-10T01:03:24.694Z,17.57
2018-01-10T01:04:24.673Z,18.62
2018-01-10T01:05:24.668Z,16.82
2018-01-10T01:06:24.664Z,18.59
2018-01-10T01:07:24.652Z,18.26
2018-01-10T01:08:24.634Z,17.85
2018-01-10T01:09:24.632Z,17.43
2018-01-10T01:10:24.627Z,15.23
2018-01-10T01:11:24.618Z,17.95
2018-01-10T01:12:24.611Z,18.05
2018-01-10T01:13:24.602Z,17.90
2018-01-10T01:14:24.595Z,17.76
2018-01-10T01:15:24.589Z,16.43
2018-01-10T01:16:24.581Z,18.48
2018-01-10T01:17:24.576Z,19.62
2018-01-10T01:18:24.567Z,19.12
2018-01-10T01:19:24.564Z,18.55
2018-01-10T01:20:24.550Z,15.60
2018-01-10T01:21:24.552Z,17.34
2018-01-10T01:22:24.535Z,16.54
2018-01-10T01:23:24.523Z,16.13
2018-01-10T01:24:24.521Z,17.17
2018-01-10T01:25:24.516Z,17.12
2018-01-10T01:26:24.505Z,19.40
2018-01-10T01:27:24.498Z,16.38
2018-01-10T01:28:24.487Z,15.32
2018-01-10T01:29:24.492Z,17.36
2018-01-10T01:30:24.473Z,18.24
2018-01-10T01:31:24.470Z,18.78
2018-01-10T01:32:24.464Z,16.96
2018-01-10T01:33:24.454Z,17.89
2018-01-10T01:34:24.451Z,15.89
2018-01-10T01:35:24.433Z,15.85
2018-01-10T01:36:24.434Z,15.20
2018-01-10T01:37:24.423Z,16.18
2018-01-10T01:38:24.412Z,18.25
2018-01-10T01:39:24.408Z,18.11
2018-01-10T01:40:24.400Z,17.48
2018-01-10T01:41:24.395Z,17.35
2018-01-10T01:42:24.392Z,16.67
2018-01-10T01:43:24.376Z,17.86
2018-01-10T01:44:24.376Z,16.63
2018-01-10T01:45:24.363Z,15.42
2018-01-10T01:46:24.359Z,16.62
2018-01-10T01:47:24.358Z,17.06
2018-01-10T01:48:24.351Z,17.23
2018-01-10T01:49:24.331Z,16.31
2018-01-10T01:50:24.325Z,16.07
2018-01-10T01:51:24.320Z,14.58
2018-01-10T01:52:24.324Z,15.56
2018-01-10T01:53:24.305Z,16.96
2018-01-10T01:54:24.295Z,17.55
2018-01-10T01:55:24.294Z,16.04
2018-01-10T01:56:24.280Z,15.49
2018-01-10T01:57:24.269Z,13.54
2018-01-10T01:58:24.274Z,15.22
2018-01-10T01:59:24.263Z,17.53
2018-01-10T02:00:24.252Z,14.96
2018-01-10T02:01:24.240Z,15.21
2018-01-10T02:02:24.233Z,14.04
2018-01-10T02:03:24.232Z,14.21
2018-01-10T02:04:24.218Z,14.45
2018-01-10T02:05:24.207Z,15.69
2018-01-10T02:06:24.207Z,14.71
2018-01-10T02:07:24.200Z,13.62
2018-01-10T02:08:24.194Z,14.06
2018-01-10T02:09:24.189Z,14.91
2018-01-10T02:10:24.180Z,15.32
2018-01-10T02:11:24.173Z,15.64
2018-01-10T02:12:24.162Z,15.33
2018-01-10T02:13:24.156Z,15.12
2018-01-10T02:14:24.152Z,15.14
2018-01-10T02:15:24.143Z,15.43
2018-01-10T02:16:24.139Z,14.02
2018-01-10T02:17:24.130Z,16.80
2018-01-10T02:18:24.121Z,14.05
2018-01-10T02:19:24.115Z,12.76
2018-01-10T02:20:24.106Z,13.01
2018-01-10T02:21:24.094Z,13.46
2018-01-10T02:22:24.090Z,14.58
2018-01-10T02:23:24.084Z,14.85
2018-01-10T02:24:26.974Z,13.23
2018-01-10T02:25:24.066Z,13.68
2018-01-10T02:26:24.062Z,13.26
2018-01-10T02:27:24.058Z,13.37
2018-01-10T02:28:24.045Z,14.67
2018-01-10T02:29:24.038Z,13.27
2018-01-10T02:30:24.035Z,13.26
2018-01-10T02:31:24.034Z,13.60
2018-01-10T02:32:24.013Z,14.10
2018-01-10T02:33:24.009Z,12.93
2018-01-10T02:34:24.005Z,12.67
2018-01-10T02:35:23.997Z,12.06
2018-01-10T02:36:23.989Z,12.55
2018-01-10T02:37:23.981Z,14.56
2018-01-10T02:38:23.970Z,12.71
2018-01-10T02:39:23.970Z,13.25
2018-01-10T02:40:23.959Z,12.13
2018-01-10T02:41:23.958Z,13.04
2018-01-10T02:42:23.945Z,13.56
2018-01-10T02:43:23.935Z,13.58
2018-01-10T02:44:23.938Z,12.08
2018-01-10T02:45:23.923Z,12.43
2018-01-10T02:46:23.914Z,12.79
2018-01-10T02:47:23.911Z,13.75
2018-01-10T02:48:23.905Z,13.60
2018-01-10T02:49:23.910Z,12.42
2018-01-10T02:50:23.889Z,14.26
2018-01-10T02:50:35.886Z,0.60
2018-01-10T02:52:23.875Z,13.67
2018-01-10T02:53:23.870Z,13.62
2018-01-10T02:54:23.869Z,11.44
2018-01-10T02:55:23.855Z,11.62
2018-01-10T02:56:23.851Z,13.45
2018-01-10T02:57:23.844Z,13.50
2018-01-10T02:58:23.827Z,12.91
2018-01-10T02:59:24.492Z,13.04
2018-01-10T03:00:23.808Z,12.64
2018-01-10T03:01:23.807Z,11.54
2018-01-10T03:02:23.802Z,12.45
2018-01-10T03:03:23.799Z,13.83
2018-01-10T03:04:23.787Z,11.45
2018-01-10T03:05:23.780Z,12.90
2018-01-10T03:06:23.770Z,12.79
2018-01-10T03:07:23.764Z,12.21
2018-01-10T03:08:23.751Z,14.41
2018-01-10T03:09:23.763Z,13.02
2018-01-10T03:10:23.745Z,11.30
2018-01-10T03:11:23.738Z,12.66
2018-01-10T03:12:23.731Z,12.20
2018-01-10T03:13:23.731Z,12.00
2018-01-10T03:14:23.713Z,11.48
2018-01-10T03:15:23.715Z,16.14
2018-01-10T03:16:23.701Z,13.60
2018-01-10T03:17:23.693Z,11.32
2018-01-10T03:18:23.685Z,11.69
2018-01-10T03:19:23.679Z,12.16
2018-01-10T03:20:23.665Z,14.98
2018-01-10T03:21:23.665Z,11.19
2018-01-10T03:22:23.660Z,10.98
2018-01-10T03:23:23.652Z,11.15
2018-01-10T03:24:23.644Z,10.24
2018-01-10T03:25:23.641Z,10.27
2018-01-10T03:26:23.631Z,12.07
2018-01-10T03:27:23.626Z,10.71
2018-01-10T03:28:23.613Z,11.26
2018-01-10T03:29:23.614Z,11.62
2018-01-10T03:30:23.603Z,11.10
2018-01-10T03:31:23.593Z,13.11
2018-01-10T03:32:23.591Z,12.71
2018-01-10T03:33:23.577Z,11.45
2018-01-10T03:34:23.569Z,11.72
2018-01-10T03:35:23.561Z,11.14
2018-01-10T03:36:23.556Z,11.22
2018-01-10T03:37:23.548Z,11.06
2018-01-10T03:38:23.545Z,10.10
2018-01-10T03:39:23.536Z,10.60
2018-01-10T03:40:23.526Z,10.63
2018-01-10T03:41:23.522Z,12.20
2018-01-10T03:42:23.520Z,14.46
2018-01-10T03:43:23.512Z,15.36
2018-01-10T03:44:23.499Z,12.83
2018-01-10T03:45:23.493Z,12.24
2018-01-10T03:46:23.488Z,13.14
2018-01-10T03:47:23.479Z,12.44
2018-01-10T03:48:23.471Z,13.78
2018-01-10T03:49:23.468Z,12.16
2018-01-10T03:50:23.463Z,11.89
2018-01-10T03:51:23.460Z,13.26
2018-01-10T03:52:23.444Z,11.62
2018-01-10T03:53:23.438Z,12.72
2018-01-10T03:54:23.427Z,12.46
2018-01-10T03:55:23.425Z,11.69
2018-01-10T03:56:23.417Z,10.59
2018-01-10T03:57:23.407Z,9.67
2018-01-10T03:58:23.397Z,12.66
2018-01-10T03:59:23.394Z,16.46
2018-01-10T04:00:23.383Z,12.07
2018-01-10T04:01:23.378Z,11.06
2018-01-10T04:02:23.380Z,11.32
2018-01-10T04:03:23.366Z,11.70
2018-01-10T04:04:23.361Z,13.94
2018-01-10T04:05:23.356Z,21.03
2018-01-10T04:06:23.350Z,11.46
2018-01-10T04:07:23.338Z,10.28
2018-01-10T04:08:23.330Z,11.55
2018-01-10T04:09:24.016Z,16.83
2018-01-10T04:10:23.322Z,14.19
2018-01-10T04:11:23.311Z,12.88
2018-01-10T04:12:23.302Z,10.48
2018-01-10T04:13:23.292Z,12.43
2018-01-10T04:14:23.275Z,13.57
2018-01-10T04:15:23.272Z,11.81
2018-01-10T04:16:23.269Z,11.75
2018-01-10T04:17:23.265Z,11.01
2018-01-10T04:18:23.262Z,10.88
2018-01-10T04:19:23.251Z,13.11
2018-01-10T04:20:23.236Z,12.48
2018-01-10T04:21:23.236Z,11.53
2018-01-10T04:22:23.223Z,11.42
2018-01-10T04:23:23.225Z,9.70
2018-01-10T04:24:23.210Z,11.44
2018-01-10T04:25:23.219Z,10.65
2018-01-10T04:26:23.206Z,12.01
2018-01-10T04:27:23.194Z,17.00
2018-01-10T04:28:23.188Z,15.59
2018-01-10T04:29:23.170Z,12.70
2018-01-10T04:30:23.166Z,11.31
2018-01-10T04:31:23.164Z,9.74
2018-01-10T04:32:23.155Z,9.76
2018-01-10T04:33:23.147Z,11.34
2018-01-10T04:34:23.142Z,11.80
2018-01-10T04:35:23.135Z,10.73
2018-01-10T04:36:23.126Z,11.81
2018-01-10T04:37:23.123Z,11.21
2018-01-10T04:38:23.113Z,12.86
2018-01-10T04:39:23.111Z,9.95
2018-01-10T04:40:23.104Z,9.55
2018-01-10T04:41:23.097Z,11.02
2018-01-10T04:42:23.090Z,10.15
2018-01-10T04:43:23.071Z,9.59
2018-01-10T04:44:23.074Z,8.52
2018-01-10T04:45:23.063Z,9.27
2018-01-10T04:46:23.056Z,9.62
2018-01-10T04:47:23.051Z,9.28
2018-01-10T04:48:23.053Z,10.70
2018-01-10T04:49:23.037Z,8.24
2018-01-10T04:50:23.032Z,8.52
2018-01-10T04:51:23.023Z,8.62
2018-01-10T04:52:23.023Z,8.46
2018-01-10T04:53:22.999Z,10.78
2018-01-10T04:54:23.009Z,9.88
2018-01-10T04:55:22.991Z,10.07
2018-01-10T04:56:22.985Z,8.98
2018-01-10T04:57:22.976Z,7.86
2018-01-10T04:58:22.970Z,9.44
2018-01-10T04:59:22.963Z,8.24
2018-01-10T05:00:22.955Z,8.21
2018-01-10T05:01:22.955Z,9.92
2018-01-10T05:02:22.946Z,9.36
2018-01-10T05:03:22.932Z,10.14
2018-01-10T05:04:22.926Z,9.50
2018-01-10T05:05:22.924Z,7.57
2018-01-10T05:06:22.915Z,8.73
2018-01-10T05:07:22.910Z,8.44
2018-01-10T05:08:22.905Z,8.10
2018-01-10T05:09:22.892Z,7.83
2018-01-10T05:10:22.884Z,8.06
2018-01-10T05:11:22.877Z,9.49
2018-01-10T05:12:22.872Z,9.42
2018-01-10T05:13:22.863Z,9.28
2018-01-10T05:14:22.858Z,8.30
2018-01-10T05:15:22.849Z,8.21
2018-01-10T05:16:22.850Z,9.26
2018-01-10T05:17:22.841Z,9.30
2018-01-10T05:18:22.835Z,8.94
2018-01-10T05:19:22.822Z,8.57
2018-01-10T05:20:22.816Z,9.01
2018-01-10T05:21:22.816Z,9.72
2018-01-10T05:22:22.802Z,8.69
2018-01-10T05:23:22.794Z,9.22
2018-01-10T05:24:22.785Z,8.32
2018-01-10T05:25:22.782Z,7.81
2018-01-10T05:26:23.538Z,7.28
2018-01-10T05:27:23.532Z,7.25
2018-01-10T05:28:22.764Z,7.60
2018-01-10T05:29:22.750Z,8.32
2018-01-10T05:30:22.749Z,7.42
2018-01-10T05:31:22.735Z,7.89
2018-01-10T05:32:22.728Z,7.49
2018-01-10T05:33:22.716Z,10.68
2018-01-10T05:34:22.726Z,10.20
2018-01-10T05:35:22.710Z,8.07
2018-01-10T05:36:22.711Z,8.65
2018-01-10T05:37:22.692Z,7.37
2018-01-10T05:38:22.688Z,7.70
2018-01-10T05:39:22.700Z,7.06
2018-01-10T05:40:22.689Z,7.12
2018-01-10T05:41:22.664Z,7.06
2018-01-10T05:42:22.656Z,6.20
2018-01-10T05:43:22.649Z,8.42
2018-01-10T05:44:22.642Z,7.68
2018-01-10T05:45:22.635Z,7.07
2018-01-10T05:46:22.627Z,7.96
2018-01-10T05:47:22.620Z,6.60
2018-01-10T05:48:22.614Z,7.41
2018-01-10T05:49:22.611Z,7.13
2018-01-10T05:50:22.601Z,7.75
2018-01-10T05:51:22.597Z,7.56
2018-01-10T05:52:22.591Z,6.84
2018-01-10T05:53:22.610Z,7.21
2018-01-10T05:54:22.576Z,9.29
2018-01-10T05:55:22.603Z,8.54
2018-01-10T05:56:22.573Z,6.68
2018-01-10T05:57:22.580Z,6.47
2018-01-10T05:58:22.542Z,6.18
2018-01-10T05:59:22.537Z,7.32
2018-01-10T06:00:22.521Z,6.58
2018-01-10T06:01:22.512Z,7.97
2018-01-10T06:02:22.509Z,8.19
2018-01-10T06:03:22.513Z,8.52
2018-01-10T06:04:22.501Z,8.73
2018-01-10T06:05:22.495Z,9.52
2018-01-10T06:06:22.493Z,8.10
2018-01-10T06:07:22.482Z,8.64
2018-01-10T06:08:22.475Z,8.13
2018-01-10T06:09:22.471Z,6.68
2018-01-10T06:10:22.458Z,7.78
2018-01-10T06:11:22.455Z,9.11
2018-01-10T06:12:22.445Z,8.89
2018-01-10T06:13:22.434Z,8.70
2018-01-10T06:14:22.433Z,7.27
2018-01-10T06:15:22.424Z,7.43
2018-01-10T06:16:22.414Z,7.77
2018-01-10T06:17:22.407Z,7.76
2018-01-10T06:18:22.396Z,11.33
2018-01-10T06:19:22.394Z,7.43
2018-01-10T06:20:22.386Z,5.73
2018-01-10T06:21:22.389Z,7.66
2018-01-10T06:22:22.376Z,8.33
2018-01-10T06:23:22.370Z,9.23
2018-01-10T06:24:22.349Z,7.38
2018-01-10T06:25:22.346Z,7.31
2018-01-10T06:26:22.370Z,7.44
2018-01-10T06:27:22.335Z,8.02
2018-01-10T06:28:22.331Z,9.08
2018-01-10T06:29:22.318Z,6.99
2018-01-10T06:30:22.312Z,8.84
2018-01-10T06:31:22.309Z,7.69
2018-01-10T06:32:25.062Z,7.80
2018-01-10T06:33:22.295Z,8.16
2018-01-10T06:34:22.283Z,6.38
2018-01-10T06:35:22.275Z,6.77
2018-01-10T06:36:22.280Z,6.99
2018-01-10T06:37:22.259Z,6.60
2018-01-10T06:38:22.260Z,7.00
2018-01-10T06:39:22.285Z,6.45
2018-01-10T06:40:22.272Z,6.01
2018-01-10T06:41:22.245Z,7.66
2018-01-10T06:42:22.227Z,6.88
2018-01-10T06:43:22.229Z,7.34
2018-01-10T06:44:22.216Z,4.73
2018-01-10T06:45:22.197Z,7.03
2018-01-10T06:46:22.200Z,6.29
2018-01-10T06:47:22.189Z,5.25
2018-01-10T06:48:22.180Z,5.83
2018-01-10T06:49:22.181Z,6.90
2018-01-10T06:50:22.163Z,6.46
2018-01-10T06:51:22.156Z,7.04
2018-01-10T06:52:22.153Z,7.13
2018-01-10T06:53:22.139Z,6.15
2018-01-10T06:54:22.146Z,6.76
2018-01-10T06:55:22.129Z,7.10
2018-01-10T06:56:22.124Z,5.72
2018-01-10T06:57:22.123Z,7.35
2018-01-10T06:58:22.105Z,10.42
2018-01-10T06:59:22.104Z,8.11
2018-01-10T07:00:22.088Z,7.21
2018-01-10T07:01:22.090Z,8.18
2018-01-10T07:02:22.072Z,8.47
2018-01-10T07:03:22.076Z,8.21
2018-01-10T07:04:22.067Z,5.53
2018-01-10T07:05:22.063Z,5.58
2018-01-10T07:06:22.055Z,4.86
2018-01-10T07:07:22.041Z,4.43
2018-01-10T07:08:22.035Z,5.53
2018-01-10T07:09:22.064Z,6.24
2018-01-10T07:10:22.018Z,5.82
2018-01-10T07:11:22.009Z,5.24
2018-01-10T07:12:22.010Z,5.19
2018-01-10T07:13:21.992Z,4.80
2018-01-10T07:14:21.988Z,6.74
2018-01-10T07:15:22.582Z,4.85
2018-01-10T07:16:21.971Z,4.76
2018-01-10T07:17:21.964Z,5.46
2018-01-10T07:18:21.975Z,5.38
2018-01-10T07:19:22.581Z,5.16
2018-01-10T07:20:21.944Z,5.75
2018-01-10T07:21:24.593Z,4.88
2018-01-10T07:22:21.928Z,5.44
2018-01-10T07:23:21.927Z,5.40
2018-01-10T07:24:21.917Z,5.04
2018-01-10T07:25:21.911Z,5.37
2018-01-10T07:26:21.902Z,4.62
2018-01-10T07:27:21.904Z,5.18
2018-01-10T07:28:21.879Z,5.11
2018-01-10T07:29:28.588Z,5.78
2018-01-10T07:30:22.589Z,5.99
2018-01-10T07:31:22.589Z,5.00
2018-01-10T07:32:21.856Z,6.20
2018-01-10T07:33:21.859Z,8.50
2018-01-10T07:34:21.859Z,6.57
2018-01-10T07:35:21.832Z,4.50
2018-01-10T07:36:21.837Z,7.15
2018-01-10T07:37:21.827Z,6.29
2018-01-10T07:38:21.808Z,6.62
2018-01-10T07:39:21.810Z,4.22
2018-01-10T07:40:21.800Z,5.75
2018-01-10T07:41:21.795Z,6.56
2018-01-10T07:42:21.784Z,5.43
2018-01-10T07:43:21.783Z,4.41
2018-01-10T07:44:21.775Z,4.15
2018-01-10T07:45:21.762Z,6.33
2018-01-10T07:46:21.752Z,4.43
2018-01-10T07:47:21.740Z,4.97
2018-01-10T07:48:21.751Z,5.68
2018-01-10T07:49:22.597Z,4.22
2018-01-10T07:50:21.729Z,4.69
2018-01-10T07:51:21.725Z,4.86
2018-01-10T07:52:21.713Z,3.72
2018-01-10T07:53:21.708Z,4.22
2018-01-10T07:54:21.706Z,6.00
2018-01-10T07:55:21.690Z,4.55
2018-01-10T07:56:21.688Z,4.61
2018-01-10T07:57:21.671Z,3.67
2018-01-10T07:58:21.672Z,4.76
2018-01-10T07:59:21.666Z,5.50
2018-01-10T08:00:21.656Z,4.88
2018-01-10T08:01:21.654Z,6.06
2018-01-10T08:02:21.647Z,5.46
2018-01-10T08:03:21.634Z,5.14
2018-01-10T08:04:21.628Z,5.10
2018-01-10T08:05:21.617Z,5.67
2018-01-10T08:06:21.612Z,4.76
2018-01-10T08:07:21.607Z,4.08
2018-01-10T08:08:21.603Z,4.36
2018-01-10T08:09:21.587Z,4.80
2018-01-10T08:10:21.586Z,7.68
2018-01-10T08:11:21.591Z,3.49
2018-01-10T08:12:21.583Z,3.84
2018-01-10T08:13:21.562Z,4.74
2018-01-10T08:14:21.558Z,6.06
2018-01-10T08:15:21.549Z,7.55
2018-01-10T08:16:21.541Z,8.06
2018-01-10T08:17:21.528Z,9.95
2018-01-10T08:18:21.528Z,7.00
2018-01-10T08:19:21.518Z,5.44
2018-01-10T08:20:21.513Z,5.15
2018-01-10T08:21:21.505Z,4.93
2018-01-10T08:22:21.492Z,5.83
2018-01-10T08:23:21.525Z,5.42
2018-01-10T08:24:21.484Z,6.76
2018-01-10T08:25:21.471Z,6.39
2018-01-10T08:26:21.467Z,8.02
2018-01-10T08:27:21.460Z,12.27
2018-01-10T08:28:21.452Z,7.77
2018-01-10T08:29:21.444Z,6.12
2018-01-10T08:30:21.447Z,6.84
2018-01-10T08:31:21.437Z,8.94
2018-01-10T08:32:21.428Z,10.42
2018-01-10T08:33:21.418Z,9.71
2018-01-10T08:34:21.414Z,7.64
2018-01-10T08:35:21.408Z,6.64
2018-01-10T08:36:21.402Z,8.00
2018-01-10T08:37:21.389Z,10.05
2018-01-10T08:38:21.382Z,7.38
2018-01-10T08:39:21.375Z,14.02
2018-01-10T08:40:21.365Z,7.67
2018-01-10T08:41:21.356Z,7.00
2018-01-10T08:42:21.355Z,12.73
2018-01-10T08:43:21.353Z,16.51
2018-01-10T08:44:21.345Z,13.97
2018-01-10T08:45:21.338Z,15.00
2018-01-10T08:46:21.332Z,14.00
2018-01-10T08:47:21.328Z,10.08
2018-01-10T08:48:21.309Z,9.26
2018-01-10T08:49:21.304Z,9.12
2018-01-10T08:50:21.302Z,7.14
2018-01-10T08:51:21.297Z,9.55
2018-01-10T08:52:21.287Z,7.14
2018-01-10T08:53:21.285Z,9.92
2018-01-10T08:54:21.282Z,10.08
2018-01-10T08:55:21.261Z,9.86
2018-01-10T08:56:21.257Z,8.43
2018-01-10T08:57:21.254Z,7.75
2018-01-10T08:58:21.243Z,6.64
2018-01-10T08:59:21.240Z,6.90
2018-01-10T09:00:21.228Z,6.88
2018-01-10T09:01:21.230Z,6.80
2018-01-10T09:02:21.219Z,6.95
2018-01-10T09:03:21.209Z,5.87
2018-01-10T09:04:21.206Z,5.72
2018-01-10T09:05:21.192Z,6.32
2018-01-10T09:06:21.186Z,6.57
2018-01-10T09:07:21.181Z,7.10
2018-01-10T09:08:21.179Z,5.61
2018-01-10T09:09:21.168Z,6.02
2018-01-10T09:10:21.164Z,9.14
2018-01-10T09:11:21.158Z,16.17
2018-01-10T09:12:21.153Z,14.60
2018-01-10T09:13:21.139Z,14.31
2018-01-10T09:14:21.134Z,12.70
2018-01-10T09:15:21.128Z,9.75
2018-01-10T09:16:21.124Z,9.26
2018-01-10T09:17:21.132Z,7.99
2018-01-10T09:18:21.103Z,9.79
2018-01-10T09:19:21.098Z,5.91
2018-01-10T09:20:21.094Z,8.80
2018-01-10T09:21:21.091Z,7.60
2018-01-10T09:22:21.077Z,5.51
2018-01-10T09:23:21.066Z,7.57
2018-01-10T09:24:21.062Z,10.74
2018-01-10T09:25:21.054Z,17.70
2018-01-10T09:26:21.052Z,17.57
2018-01-10T09:27:21.042Z,11.38
2018-01-10T09:28:21.040Z,9.86
2018-01-10T09:29:21.044Z,11.83
2018-01-10T09:30:21.021Z,16.23
2018-01-10T09:31:21.021Z,11.14
2018-01-10T09:32:21.009Z,10.40
2018-01-10T09:33:20.994Z,12.36
2018-01-10T09:34:20.990Z,9.55
2018-01-10T09:35:20.989Z,7.35
2018-01-10T09:36:20.979Z,8.61
2018-01-10T09:37:20.968Z,8.48
2018-01-10T09:38:21.629Z,7.96
2018-01-10T09:39:20.964Z,5.57
2018-01-10T09:40:20.951Z,5.97
2018-01-10T09:41:20.954Z,5.42
2018-01-10T09:42:28.735Z,5.19
2018-01-10T09:45:14.067Z,4.73
2018-01-10T09:46:13.097Z,7.51
2018-01-10T09:48:58.485Z,6.82
2018-01-10T09:49:58.398Z,6.00
2018-01-10T09:52:43.756Z,5.13
2018-01-10T09:53:34.971Z,8.24
2018-01-10T09:56:19.370Z,5.72
2018-01-10T09:57:19.320Z,7.06
2018-01-10T10:00:03.713Z,6.31
2018-01-10T10:01:03.687Z,8.71
2018-01-10T10:03:48.058Z,5.60
2018-01-10T10:04:48.040Z,5.16
2018-01-10T10:07:32.410Z,5.45
2018-01-10T10:08:32.389Z,6.90
2018-01-10T10:11:15.796Z,5.10
2018-01-10T10:12:16.341Z,5.05
2018-01-10T10:15:00.173Z,7.11
2018-01-10T10:16:00.131Z,5.61
2018-01-10T10:18:44.496Z,7.33
2018-01-10T10:19:44.480Z,8.74
2018-01-10T10:22:28.848Z,7.59
2018-01-10T10:23:28.812Z,8.04
2018-01-10T10:26:12.223Z,10.57
2018-01-10T10:27:12.190Z,9.34
2018-01-10T10:29:56.575Z,6.25
2018-01-10T10:30:56.550Z,6.61
2018-01-10T10:33:40.924Z,5.47
2018-01-10T10:34:40.897Z,10.03
2018-01-10T10:37:25.421Z,8.88
2018-01-10T10:38:25.237Z,7.14
2018-01-10T10:41:08.644Z,8.10
2018-01-10T10:42:08.633Z,6.71
2018-01-10T10:44:52.993Z,10.21
2018-01-10T10:45:52.962Z,8.04
2018-01-10T10:48:36.509Z,9.54
2018-01-10T10:49:36.345Z,5.69
2018-01-10T10:52:21.617Z,7.16
2018-01-10T10:53:21.586Z,7.75
2018-01-10T10:56:06.186Z,8.87
2018-01-10T10:57:05.918Z,8.42
2018-01-10T10:59:49.338Z,6.10
2018-01-10T11:00:49.271Z,8.31
2018-01-10T11:03:33.665Z,8.46
2018-01-10T11:04:33.646Z,8.70
2018-01-10T11:05:33.614Z,6.45
2018-01-10T11:06:33.619Z,8.29
2018-01-10T11:07:33.624Z,9.76
2018-01-10T11:08:33.603Z,8.98
2018-01-10T11:09:33.601Z,7.70
2018-01-10T11:10:33.590Z,7.26
2018-01-10T11:11:33.607Z,8.09
2018-01-10T11:12:33.707Z,10.11
2018-01-10T11:13:33.568Z,8.24
2018-01-10T11:14:33.571Z,7.51
2018-01-10T11:15:33.558Z,10.93
2018-01-10T11:16:33.558Z,9.14
2018-01-10T11:17:33.560Z,8.64
2018-01-10T11:18:33.552Z,7.41
2018-01-10T11:19:33.549Z,7.78
2018-01-10T11:20:33.534Z,8.25
2018-01-10T11:21:33.524Z,8.30
2018-01-10T11:22:33.567Z,9.97
2018-01-10T11:23:33.519Z,9.64
2018-01-10T11:24:33.514Z,9.10
2018-01-10T11:25:33.501Z,9.95
2018-01-10T11:26:33.493Z,10.80
2018-01-10T11:27:33.493Z,11.23
2018-01-10T11:28:33.489Z,10.56
2018-01-10T11:29:33.480Z,9.12
2018-01-10T11:30:33.479Z,9.51
2018-01-10T11:31:33.480Z,9.63
2018-01-10T11:32:33.465Z,9.78
2018-01-10T11:33:33.459Z,13.61
2018-01-10T11:34:33.454Z,9.91
2018-01-10T11:35:33.446Z,7.47
2018-01-10T11:36:33.444Z,10.42
2018-01-10T11:37:33.436Z,10.10
2018-01-10T11:38:34.214Z,9.10
2018-01-10T11:39:33.421Z,10.92
2018-01-10T11:40:33.428Z,11.58
2018-01-10T11:41:33.411Z,9.18
2018-01-10T11:42:33.403Z,11.20
2018-01-10T11:43:33.399Z,9.53
2018-01-10T11:44:33.402Z,9.56
2018-01-10T11:45:33.389Z,11.01
2018-01-10T11:46:33.385Z,11.18
2018-01-10T11:47:33.374Z,10.57
2018-01-10T11:48:33.366Z,9.22
2018-01-10T11:49:33.365Z,11.93
2018-01-10T11:50:33.358Z,11.25
2018-01-10T11:51:33.354Z,11.63
2018-01-10T11:52:33.342Z,10.78
2018-01-10T11:53:33.338Z,9.24
2018-01-10T11:54:33.332Z,8.64
2018-01-10T11:55:33.322Z,8.46
2018-01-10T11:56:33.326Z,7.87
2018-01-10T11:57:33.317Z,11.46
2018-01-10T11:58:33.307Z,9.86
2018-01-10T11:59:33.305Z,10.34
2018-01-10T12:00:33.290Z,9.88
2018-01-10T12:01:33.300Z,7.96
2018-01-10T12:02:33.286Z,10.45
2018-01-10T12:03:33.280Z,10.31
2018-01-10T12:04:33.277Z,9.46
2018-01-10T12:05:33.270Z,10.44
2018-01-10T12:06:33.265Z,9.89
2018-01-10T12:07:33.259Z,11.31
2018-01-10T12:08:33.244Z,7.72
2018-01-10T12:09:33.253Z,8.25
2018-01-10T12:10:33.243Z,9.59
2018-01-10T12:11:33.235Z,7.77
2018-01-10T12:12:33.232Z,9.32
2018-01-10T12:13:33.231Z,8.95
2018-01-10T12:14:33.220Z,9.24
2018-01-10T12:15:33.214Z,12.00
2018-01-10T12:16:33.207Z,9.95
2018-01-10T12:17:33.209Z,8.81
2018-01-10T12:18:33.196Z,9.34
2018-01-10T12:19:33.189Z,9.38
2018-01-10T12:20:33.189Z,8.12
2018-01-10T12:21:33.172Z,9.15
2018-01-10T12:22:33.171Z,8.94
2018-01-10T12:23:33.166Z,9.32
2018-01-10T12:24:33.160Z,10.76
2018-01-10T12:25:33.158Z,10.47
2018-01-10T12:26:33.154Z,11.10
2018-01-10T12:27:33.156Z,10.08
2018-01-10T12:28:33.138Z,12.22
2018-01-10T12:29:33.137Z,9.02
2018-01-10T12:30:33.137Z,7.71
2018-01-10T12:31:33.126Z,6.86
2018-01-10T12:32:33.121Z,10.55
2018-01-10T12:33:33.110Z,10.60
2018-01-10T12:34:33.114Z,11.06
2018-01-10T12:35:33.111Z,8.00
2018-01-10T12:36:33.095Z,10.03
2018-01-10T12:37:33.091Z,12.48
2018-01-10T12:38:33.081Z,15.75
2018-01-10T12:39:33.078Z,19.15
2018-01-10T12:40:33.070Z,13.91
2018-01-10T12:41:33.064Z,17.11
2018-01-10T12:42:33.061Z,14.33
2018-01-10T12:43:33.056Z,13.80
2018-01-10T12:44:33.051Z,13.86
2018-01-10T12:45:33.047Z,12.06
2018-01-10T12:46:33.037Z,12.25
2018-01-10T12:47:33.039Z,6.86
2018-01-10T12:48:33.048Z,9.67
2018-01-10T12:49:33.023Z,10.15
2018-01-10T12:50:33.017Z,9.66
2018-01-10T12:51:33.011Z,7.09
2018-01-10T12:52:33.004Z,8.15
2018-01-10T12:53:32.993Z,7.49
2018-01-10T12:54:33.008Z,9.44
2018-01-10T12:55:32.990Z,9.79
2018-01-10T12:56:32.981Z,6.78
2018-01-10T12:57:32.983Z,9.64
2018-01-10T12:58:32.980Z,12.84
2018-01-10T12:59:32.992Z,12.47
2018-01-10T13:00:32.967Z,12.53
2018-01-10T13:01:32.965Z,12.89
2018-01-10T13:02:32.959Z,15.48
2018-01-10T13:03:32.955Z,15.55
2018-01-10T13:04:32.943Z,13.81
2018-01-10T13:05:32.940Z,14.65
2018-01-10T13:06:32.929Z,13.27
2018-01-10T13:07:32.932Z,14.50
2018-01-10T13:08:32.922Z,21.35
2018-01-10T13:09:32.963Z,13.59
2018-01-10T13:10:32.909Z,15.90
2018-01-10T13:11:32.920Z,15.47
2018-01-10T13:12:32.900Z,16.74
2018-01-10T13:13:32.897Z,14.46
2018-01-10T13:14:33.753Z,13.05
2018-01-10T13:15:32.893Z,13.85
2018-01-10T13:16:32.884Z,14.81
2018-01-10T13:17:32.875Z,15.00
2018-01-10T13:18:32.862Z,18.16
2018-01-10T13:19:32.864Z,12.62
2018-01-10T13:20:32.853Z,10.63
2018-01-10T13:21:32.857Z,16.60
2018-01-10T13:22:32.858Z,13.51
2018-01-10T13:23:32.845Z,12.32
2018-01-10T13:24:33.755Z,11.55
2018-01-10T13:25:32.830Z,8.59
2018-01-10T13:26:32.832Z,12.92
2018-01-10T13:27:32.825Z,10.86
2018-01-10T13:28:32.837Z,10.42
2018-01-10T13:29:32.809Z,10.67
2018-01-10T13:30:32.818Z,7.98
2018-01-10T13:31:32.823Z,8.93
2018-01-10T13:32:32.801Z,7.20
2018-01-10T13:33:32.783Z,8.68
2018-01-10T13:34:32.783Z,16.52
2018-01-10T13:35:32.776Z,14.38
2018-01-10T13:36:33.761Z,11.50
2018-01-10T13:37:32.770Z,8.64
2018-01-10T13:38:32.770Z,10.03
2018-01-10T13:39:32.763Z,10.16
2018-01-10T13:40:32.755Z,12.97
2018-01-10T13:41:32.757Z,12.84
2018-01-10T13:42:32.744Z,11.34
2018-01-10T13:43:32.738Z,11.00